createdAt,value
2018-03-04T18:06:11.634Z,1.50
2018-03-04T18:08:42.924Z,2.62
2018-03-04T18:11:14.192Z,1.58
2018-03-04T18:45:58.363Z,9.48
2018-03-04T18:48:27.989Z,9.32
2018-03-04T18:50:56.902Z,10.10
2018-03-04T18:56:18.087Z,13.55
2018-03-04T18:58:46.910Z,7.28
2018-03-04T19:01:15.821Z,9.90
2018-03-04T19:03:45.870Z,9.45
2018-03-04T19:06:17.450Z,10.18
2018-03-04T19:08:47.636Z,12.13
2018-03-04T19:11:16.607Z,9.43
2018-03-04T19:13:45.466Z,9.73
2018-03-04T19:16:14.224Z,10.35
2018-03-04T19:18:42.993Z,7.18
2018-03-04T19:21:12.239Z,10.00
2018-03-04T19:23:41.055Z,9.38
2018-03-04T19:26:10.039Z,8.70
2018-03-04T19:28:39.275Z,10.88
2018-03-04T19:31:09.822Z,11.40
2018-03-04T19:33:38.814Z,10.90
2018-03-04T19:36:07.727Z,11.73
2018-03-04T19:38:36.618Z,11.00
2018-03-04T19:41:05.599Z,13.07
2018-03-04T19:43:34.924Z,11.45
2018-03-04T19:46:04.189Z,11.60
2018-03-04T19:48:33.499Z,12.57
2018-03-04T19:51:02.399Z,10.55
2018-03-04T19:53:31.357Z,12.07
2018-03-04T19:56:00.322Z,15.48
2018-03-04T19:58:29.309Z,13.77
2018-03-04T20:00:59.606Z,11.93
2018-03-04T20:03:29.423Z,11.70
2018-03-04T20:05:59.658Z,10.48
2018-03-04T20:08:28.480Z,11.57
2018-03-04T20:10:57.297Z,13.45
2018-03-04T20:13:26.099Z,12.05
2018-03-04T20:15:59.680Z,12.77
2018-03-04T20:18:28.571Z,12.85
2018-03-04T20:20:57.468Z,13.30
2018-03-04T20:23:26.266Z,15.77
2018-03-04T20:25:55.691Z,13.07
2018-03-04T20:28:24.524Z,15.02
2018-03-04T20:30:53.369Z,14.80
2018-03-04T20:33:22.431Z,15.45
2018-03-04T20:35:53.166Z,12.52
2018-03-04T20:38:22.032Z,13.30
2018-03-04T20:40:51.727Z,14.15
2018-03-04T20:43:20.829Z,14.30
2018-03-04T20:45:49.918Z,13.95
2018-03-04T20:48:20.210Z,12.52
2018-03-04T20:50:49.696Z,15.82
2018-03-04T20:53:19.276Z,15.05
2018-03-04T20:55:50.850Z,15.52
2018-03-04T20:58:21.287Z,10.98
2018-03-04T21:00:50.347Z,11.85
2018-03-04T21:03:19.279Z,11.55
2018-03-04T21:05:48.107Z,15.32
2018-03-04T21:08:16.947Z,12.55
2018-03-04T21:10:45.748Z,12.52
2018-03-04T21:13:14.713Z,13.70
2018-03-04T21:15:43.945Z,11.32
2018-03-04T21:18:13.499Z,13.75
2018-03-04T21:20:42.727Z,12.77
2018-03-04T21:23:12.238Z,10.32
2018-03-04T21:25:41.696Z,13.43
2018-03-04T21:28:11.353Z,15.18
2018-03-04T21:30:40.862Z,12.90
2018-03-04T21:33:10.445Z,13.65
2018-03-04T21:35:39.557Z,15.52
2018-03-04T21:38:08.609Z,13.82
2018-03-04T21:40:38.611Z,12.80
2018-03-04T21:43:07.887Z,11.25
2018-03-04T21:45:37.488Z,11.38
2018-03-04T21:48:06.744Z,10.55
2018-03-04T21:50:38.820Z,10.38
2018-03-04T21:53:08.252Z,11.93
2018-03-04T21:55:37.280Z,10.82
2018-03-04T21:58:08.865Z,10.98
2018-03-04T22:00:39.268Z,12.40
2018-03-04T22:03:08.718Z,10.63
2018-03-04T22:05:38.756Z,11.68
2018-03-04T22:08:08.148Z,12.15
2018-03-04T22:10:37.898Z,11.90
2018-03-04T22:13:07.884Z,13.68
2018-03-04T22:15:37.278Z,11.90
2018-03-04T22:18:06.080Z,9.55
2018-03-04T22:20:38.114Z,10.43
2018-03-04T22:23:07.561Z,8.48
2018-03-04T22:25:36.308Z,8.95
2018-03-04T22:28:05.827Z,8.85
2018-03-04T22:30:35.821Z,11.30
2018-03-04T22:33:05.521Z,10.20
2018-03-04T22:35:34.940Z,12.18
2018-03-04T22:38:04.559Z,11.05
2018-03-04T22:40:33.548Z,8.55
2018-03-04T22:43:02.479Z,10.52
2018-03-04T22:45:31.611Z,9.80
2018-03-04T22:48:00.529Z,7.05
2018-03-04T22:50:30.071Z,8.13
2018-03-04T22:52:58.914Z,8.52
2018-03-04T22:55:28.488Z,6.18
2018-03-04T22:57:57.512Z,5.97
2018-03-04T23:00:26.369Z,6.47
2018-03-04T23:02:55.280Z,6.82
2018-03-04T23:05:24.320Z,6.68
2018-03-04T23:07:53.133Z,7.47
2018-03-04T23:10:21.848Z,7.28
2018-03-04T23:12:50.732Z,5.53
2018-03-04T23:15:19.526Z,4.37
2018-03-04T23:17:55.167Z,2.30
2018-03-04T23:20:24.013Z,3.90
2018-03-04T23:22:53.052Z,6.90
2018-03-04T23:25:21.940Z,5.50
2018-03-04T23:27:50.792Z,4.45
2018-03-04T23:30:19.732Z,4.43
2018-03-04T23:32:48.559Z,4.55
2018-03-04T23:35:17.431Z,4.07
2018-03-04T23:37:46.666Z,3.75
2018-03-04T23:40:15.468Z,4.30
2018-03-04T23:42:44.245Z,3.45
2018-03-04T23:45:13.263Z,3.10
2018-03-04T23:47:46.948Z,3.15
2018-03-04T23:50:15.795Z,2.83
2018-03-04T23:52:44.628Z,2.90
2018-03-04T23:55:13.434Z,2.42
2018-03-04T23:57:47.784Z,2.47
